Time;durP1;ratioP1;P1;durP2;ratioP2;P2;SDS_P1;SDS_P2;PMS_P1;PMS_P2;Temp;Humidity;BMP_temperature;BMP_pressure;BME280_temperature;BME280_humidity;BME280_pressure;Samples;Min_cycle;Max_cycle;Signal;HPM_P1;HPM_P2
2024/03/12 00:02:00;;;;;;;28.60;18.10;;;;;;;9.93;75.30;98190.27;232497;203;136530;-61
2024/03/12 00:07:05;;;;;;;24.60;17.40;;;;;;;9.90;75.50;98189.92;232482;200;136793;-61
2024/03/12 00:12:08;;;;;;;26.00;18.60;;;;;;;9.90;75.45;98190.73;232512;203;151399;-62
2024/03/12 00:17:14;;;;;;;25.70;17.70;;;;;;;9.89;75.62;98194.34;232550;203;136700;-62
2024/03/12 00:22:17;;;;;;;;;;;;;;;9.86;75.56;98189.73;232589;200;136677;-62
2024/03/12 00:27:20;;;;;;;26.60;15.40;;;;;;;9.84;75.70;98189.53;232079;199;151478;-61
2024/03/12 00:32:24;;;;;;;24.90;17.70;;;;;;;9.84;75.57;98185.83;232567;203;139983;-61
2024/03/12 00:37:28;;;;;;;24.70;17.80;;;;;;;9.86;75.61;98183.21;232635;200;137561;-61
2024/03/12 00:42:32;;;;;;;24.60;17.00;;;;;;;9.89;75.50;98183.33;232586;203;151886;-61
2024/03/12 00:47:36;;;;;;;26.10;17.80;;;;;;;9.89;75.54;98181.17;232642;203;137523;-61
2024/03/12 00:52:41;;;;;;;25.90;17.70;;;;;;;9.87;75.45;98177.80;232478;199;136706;-62
2024/03/12 00:57:45;;;;;;;25.40;18.10;;;;;;;9.83;75.55;98175.27;232512;200;151614;-62
2024/03/12 01:02:53;;;;;;;24.70;18.10;;;;;;;9.81;75.61;98168.33;232495;197;136842;-62
2024/03/12 01:07:59;;;;;;;23.90;16.30;;;;;;;9.77;75.75;98171.29;232597;203;136880;-62
2024/03/12 01:13:05;;;;;;;25.60;17.20;;;;;;;9.77;75.88;98165.91;232525;203;152842;-62
2024/03/12 01:18:10;;;;;;;25.10;17.10;;;;;;;9.85;75.92;98162.73;232470;203;137166;-61
2024/03/12 01:23:13;;;;;;;26.60;18.40;;;;;;;9.89;75.69;98162.75;232630;195;138198;-61
2024/03/12 01:28:17;;;;;;;26.50;17.70;;;;;;;9.92;75.60;98162.94;232586;203;152633;-61
2024/03/12 01:33:20;;;;;;;27.10;17.90;;;;;;;9.90;75.47;98161.61;232520;200;137195;-61
2024/03/12 01:38:24;;;;;;;25.70;17.80;;;;;;;9.87;75.53;98162.02;232597;203;137095;-62
2024/03/12 01:43:28;;;;;;;24.40;17.50;;;;;;;9.85;75.75;98162.35;232330;199;151820;-63
2024/03/12 01:48:31;;;;;;;26.20;16.60;;;;;;;9.83;75.61;98157.23;232594;197;136850;-62
2024/03/12 01:53:34;;;;;;;22.50;16.40;;;;;;;9.82;75.74;98155.16;232398;196;137390;-62
2024/03/12 01:58:38;;;;;;;28.30;18.20;;;;;;;9.86;75.73;98152.17;232523;203;151730;-62
2024/03/12 02:03:41;;;;;;;27.70;17.70;;;;;;;9.87;75.68;98149.95;232542;203;138623;-62
2024/03/12 02:08:44;;;;;;;27.40;18.30;;;;;;;9.89;75.63;98146.09;232502;203;139216;-63
2024/03/12 02:13:51;;;;;;;28.70;17.60;;;;;;;9.89;75.53;98144.35;232594;200;152230;-61
2024/03/12 02:18:54;;;;;;;25.90;16.90;;;;;;;9.83;75.48;98147.44;232501;199;137961;-62
2024/03/12 02:23:57;;;;;;;25.10;17.80;;;;;;;9.79;75.69;98147.75;232427;200;137533;-61
2024/03/12 02:29:01;;;;;;;25.40;16.60;;;;;;;9.76;75.84;98146.75;232538;203;151953;-62
2024/03/12 02:34:04;;;;;;;28.70;17.80;;;;;;;9.77;75.89;98149.52;232295;203;137170;-61
2024/03/12 02:39:07;;;;;;;27.20;17.80;;;;;;;9.81;75.83;98148.65;232553;195;136910;-62
2024/03/12 02:44:12;;;;;;;28.10;18.90;;;;;;;9.84;75.86;98144.39;232590;197;151398;-62
2024/03/12 02:49:16;;;;;;;26.40;17.80;;;;;;;9.86;75.82;98142.45;232568;203;136540;-63
2024/03/12 02:54:20;;;;;;;28.20;17.80;;;;;;;9.84;75.84;98142.63;232610;204;137799;-61
2024/03/12 02:59:27;;;;;;;28.00;19.60;;;;;;;9.82;75.93;98143.65;232546;200;151524;-61
2024/03/12 03:04:36;;;;;;;28.10;18.30;;;;;;;9.80;75.93;98146.79;232583;203;137955;-62
2024/03/12 03:09:40;;;;;;;28.20;16.80;;;;;;;9.78;76.04;98145.67;232520;199;137490;-61
2024/03/12 03:14:43;;;;;;;24.60;16.90;;;;;;;9.80;76.05;98143.59;232421;197;151407;-61
2024/03/12 03:19:50;;;;;;;29.90;18.30;;;;;;;9.85;75.99;98139.13;232577;197;138593;-62
2024/03/12 03:24:53;;;;;;;27.00;18.10;;;;;;;9.89;75.93;98138.52;232507;200;137485;-62
2024/03/12 03:29:59;;;;;;;29.30;18.50;;;;;;;9.93;75.97;98142.47;232561;203;152302;-62
2024/03/12 03:35:06;;;;;;;31.60;18.90;;;;;;;9.93;75.87;98145.32;232561;203;137053;-62
2024/03/12 03:40:10;;;;;;;28.90;18.20;;;;;;;9.89;75.78;98142.05;232585;203;136930;-61
2024/03/12 03:45:14;;;;;;;30.30;18.50;;;;;;;9.85;75.81;98142.89;232574;203;151811;-62
2024/03/12 03:50:18;;;;;;;26.20;17.40;;;;;;;9.81;76.06;98145.30;232534;200;137415;-63
2024/03/12 03:55:22;;;;;;;28.40;16.90;;;;;;;9.78;76.23;98144.96;232556;196;138197;-62
2024/03/12 04:00:28;;;;;;;28.60;18.20;;;;;;;9.82;76.21;98146.83;232513;200;151357;-62
2024/03/12 04:05:35;;;;;;;31.10;18.50;;;;;;;9.86;76.20;98147.25;232522;200;137361;-62
2024/03/12 04:10:42;;;;;;;28.50;18.20;;;;;;;9.87;76.13;98149.43;232614;203;137493;-62
2024/03/12 04:15:47;;;;;;;28.50;18.20;;;;;;;9.90;76.20;98146.05;232490;197;151945;-63
2024/03/12 04:20:53;;;;;;;28.30;18.30;;;;;;;9.90;76.08;98146.58;232504;201;136628;-62
2024/03/12 04:25:56;;;;;;;;;;;;;;;9.89;76.11;98147.38;232587;203;136491;-62
2024/03/12 04:31:00;;;;;;;25.90;17.60;;;;;;;9.87;76.15;98148.73;232673;202;151444;-62
2024/03/12 04:36:06;;;;;;;23.70;16.50;;;;;;;9.86;76.34;98154.29;232566;203;137248;-62
2024/03/12 04:41:10;;;;;;;26.00;15.50;;;;;;;9.87;76.27;98156.56;232610;203;137953;-62
2024/03/12 04:46:13;;;;;;;23.40;15.40;;;;;;;9.92;76.28;98159.51;232576;204;152430;-62
2024/03/12 04:51:17;;;;;;;25.90;16.30;;;;;;;9.98;76.14;98163.87;232426;203;136751;-62
2024/03/12 04:56:21;;;;;;;25.20;16.10;;;;;;;10.02;76.03;98169.10;232559;203;137359;-63
2024/03/12 05:01:24;;;;;;;25.80;17.00;;;;;;;10.02;75.96;98172.79;232517;203;152796;-63
2024/03/12 05:06:27;;;;;;;26.10;17.20;;;;;;;9.97;76.02;98175.98;232550;197;137104;-63
2024/03/12 05:11:30;;;;;;;22.30;15.70;;;;;;;9.94;76.17;98179.38;232569;203;138580;-63
2024/03/12 05:16:34;;;;;;;26.20;15.50;;;;;;;9.92;76.14;98185.02;232500;201;151403;-63
2024/03/12 05:21:37;;;;;;;22.90;14.60;;;;;;;9.93;76.27;98180.88;232515;200;138639;-62
2024/03/12 05:26:44;;;;;;;231.70;180.70;;;;;;;10.02;76.69;98183.61;232459;203;136851;-64
2024/03/12 05:31:47;;;;;;;329.60;282.30;;;;;;;10.15;76.50;98188.15;232515;200;151360;-63
2024/03/12 05:36:51;;;;;;;87.80;61.40;;;;;;;10.21;76.27;98194.15;232458;203;138000;-64
2024/03/12 05:52:40;;;;;;;21.70;14.50;;;;;;;10.11;75.82;98211.16;232534;200;138254;-61
2024/03/12 05:57:44;;;;;;;19.60;14.30;;;;;;;10.03;75.80;98209.23;232587;207;136888;-64
2024/03/12 06:02:49;;;;;;;20.70;13.80;;;;;;;10.00;75.98;98214.27;232493;203;151475;-63
2024/03/12 06:07:52;;;;;;;20.50;14.80;;;;;;;10.05;75.97;98219.70;232376;197;138267;-63
2024/03/12 06:12:56;;;;;;;22.00;14.20;;;;;;;10.12;75.87;98219.88;232521;197;137622;-63
2024/03/12 06:18:02;;;;;;;21.10;14.40;;;;;;;10.14;75.73;98222.24;232493;200;151812;-62
2024/03/12 06:23:05;;;;;;;22.60;15.10;;;;;;;10.14;75.76;98228.77;232527;203;138261;-61
2024/03/12 06:28:11;;;;;;;23.60;15.30;;;;;;;10.12;75.85;98229.51;232564;200;136983;-62
2024/03/12 06:33:17;;;;;;;21.10;13.80;;;;;;;10.10;75.92;98233.52;232554;202;153968;-63
2024/03/12 06:38:21;;;;;;;20.30;13.40;;;;;;;10.06;75.96;98239.65;232507;197;136784;-63
2024/03/12 06:43:24;;;;;;;161.00;128.30;;;;;;;10.08;76.06;98240.80;232552;203;137863;-65
2024/03/12 06:48:28;;;;;;;54.40;39.30;;;;;;;10.17;76.57;98234.95;232548;195;152231;-65
2024/03/12 06:53:31;;;;;;;22.50;15.00;;;;;;;10.29;76.61;98243.17;232511;200;137538;-62
2024/03/12 06:58:39;;;;;;;22.00;15.10;;;;;;;10.36;75.95;98250.64;232400;200;137374;-62
2024/03/12 07:03:42;;;;;;;23.50;16.10;;;;;;;10.35;75.62;98249.77;232429;203;151732;-62
2024/03/12 07:08:46;;;;;;;59.20;43.40;;;;;;;10.36;76.24;98258.79;232425;203;137025;-63
2024/03/12 07:13:52;;;;;;;24.10;15.60;;;;;;;10.36;75.92;98259.81;232512;203;136675;-62
2024/03/12 07:18:55;;;;;;;20.90;14.90;;;;;;;10.45;76.17;98265.20;232547;203;152082;-59
2024/03/12 07:23:58;;;;;;;24.40;15.90;;;;;;;10.53;75.55;98265.00;232579;203;137400;-61
2024/03/12 07:29:02;;;;;;;23.30;15.30;;;;;;;10.56;75.47;98264.21;232427;203;137682;-61
2024/03/12 07:34:05;;;;;;;27.70;17.70;;;;;;;10.57;75.47;98267.55;232552;203;151488;-63
2024/03/12 07:39:09;;;;;;;24.70;17.20;;;;;;;10.56;75.50;98274.16;232528;200;136873;-61
2024/03/12 07:44:12;;;;;;;28.60;18.70;;;;;;;10.58;75.85;98279.13;232526;203;137238;-62
2024/03/12 07:49:20;;;;;;;27.50;17.80;;;;;;;10.60;75.44;98274.37;232358;203;151649;-62
2024/03/12 07:54:24;;;;;;;27.80;17.00;;;;;;;10.55;75.55;98271.38;232444;203;136779;-61
2024/03/12 07:59:31;;;;;;;28.10;17.10;;;;;;;10.56;75.58;98275.54;232340;200;138099;-61
2024/03/12 08:04:34;;;;;;;31.30;19.60;;;;;;;10.63;75.87;98283.00;232522;203;151375;-61
2024/03/12 08:09:38;;;;;;;26.00;17.50;;;;;;;10.69;75.36;98284.00;232006;200;137315;-62
2024/03/12 08:14:41;;;;;;;26.20;18.30;;;;;;;10.68;75.33;98286.91;232517;203;137433;-61
2024/03/12 08:19:44;;;;;;;31.00;18.80;;;;;;;10.67;75.34;98293.42;232502;200;151434;-61
2024/03/12 08:24:50;;;;;;;30.30;19.90;;;;;;;10.64;75.40;98299.11;232423;203;136741;-61
2024/03/12 08:29:57;;;;;;;;;;;;;;;10.60;75.67;98300.45;232580;203;138391;-62
2024/03/12 08:35:01;;;;;;;31.50;20.00;;;;;;;10.55;75.82;98303.64;232708;203;152434;-61
2024/03/12 08:40:07;;;;;;;30.40;18.10;;;;;;;10.52;76.00;98307.92;232508;203;136876;-62
2024/03/12 08:45:14;;;;;;;30.60;18.80;;;;;;;10.54;76.01;98308.68;232561;203;137997;-61
2024/03/12 08:50:17;;;;;;;30.80;19.30;;;;;;;10.60;75.93;98309.11;232508;203;151790;-61
2024/03/12 08:55:20;;;;;;;30.10;19.80;;;;;;;10.66;75.90;98307.10;232487;203;137736;-61
2024/03/12 09:00:26;;;;;;;28.90;18.50;;;;;;;10.71;75.87;98307.80;232521;207;137031;-61
2024/03/12 09:05:30;;;;;;;29.90;20.20;;;;;;;10.75;75.80;98309.32;232426;203;151189;-60
2024/03/12 09:10:38;;;;;;;145.70;108.20;;;;;;;10.78;76.00;98309.77;232502;196;136778;-57
2024/03/12 09:15:48;;;;;;;33.40;20.50;;;;;;;10.84;75.94;98304.18;232515;203;138261;-61
2024/03/12 09:20:51;;;;;;;31.40;19.10;;;;;;;10.82;75.57;98307.31;232539;199;151296;-59
2024/03/12 09:25:54;;;;;;;30.70;19.80;;;;;;;10.84;75.66;98314.25;232518;203;137407;-60
2024/03/12 09:30:58;;;;;;;32.20;20.00;;;;;;;10.91;75.47;98317.10;232511;199;138315;-59
2024/03/12 09:36:03;;;;;;;33.30;19.90;;;;;;;10.96;75.24;98324.75;232568;203;151993;-60
2024/03/12 09:41:09;;;;;;;30.10;20.40;;;;;;;10.98;75.19;98324.06;232475;203;137377;-61
2024/03/12 09:46:14;;;;;;;32.10;19.50;;;;;;;10.97;75.19;98329.13;232539;201;137105;-61
2024/03/12 09:51:17;;;;;;;32.60;20.10;;;;;;;10.97;75.35;98335.70;232133;203;151828;-61
2024/03/12 09:56:21;;;;;;;31.00;19.20;;;;;;;10.97;75.40;98336.23;232533;200;137696;-61
2024/03/12 10:01:24;;;;;;;26.60;17.80;;;;;;;10.94;75.27;98340.70;232397;201;140595;-61
2024/03/12 10:06:28;;;;;;;30.70;18.50;;;;;;;10.97;75.44;98339.61;232230;196;151403;-60
2024/03/12 10:11:33;;;;;;;25.20;17.00;;;;;;;11.03;75.40;98341.08;232460;203;139287;-61
2024/03/12 10:16:36;;;;;;;25.80;18.00;;;;;;;11.09;75.16;98344.52;232483;200;136794;-61
2024/03/12 10:21:40;;;;;;;27.60;17.80;;;;;;;11.13;75.26;98343.73;232507;202;151506;-61
2024/03/12 10:26:44;;;;;;;27.10;17.60;;;;;;;11.17;75.14;98342.36;232172;203;137847;-61
2024/03/12 10:31:48;;;;;;;118.70;79.60;;;;;;;11.22;75.41;98346.63;232367;203;137795;-61
2024/03/12 10:36:51;;;;;;;34.60;20.00;;;;;;;11.32;75.48;98346.17;232382;199;151300;-62
2024/03/12 10:41:59;;;;;;;26.90;15.80;;;;;;;11.32;75.19;98344.16;232396;199;137346;-60
2024/03/12 10:47:04;;;;;;;25.00;17.20;;;;;;;11.34;74.99;98341.02;232298;197;138642;-61
2024/03/12 10:52:08;;;;;;;24.60;16.80;;;;;;;11.41;74.83;98340.16;232405;203;151151;-61
2024/03/12 10:57:13;;;;;;;26.90;17.60;;;;;;;11.46;74.42;98349.89;232436;203;137237;-61
2024/03/12 11:02:16;;;;;;;25.90;17.00;;;;;;;11.48;74.16;98350.65;232138;203;137590;-63
2024/03/12 11:07:21;;;;;;;23.80;16.90;;;;;;;11.51;74.09;98342.73;232504;203;151243;-61
2024/03/12 11:12:25;;;;;;;21.10;15.20;;;;;;;11.52;74.12;98344.59;232328;203;137652;-62
2024/03/12 11:17:31;;;;;;;245.10;167.40;;;;;;;11.51;74.24;98345.96;232221;203;137309;-62
2024/03/12 11:22:41;;;;;;;33.80;24.00;;;;;;;11.52;74.44;98347.29;232471;201;151386;-63
2024/03/12 11:27:45;;;;;;;17.60;13.80;;;;;;;11.63;74.62;98348.95;232390;200;138322;-62
2024/03/12 11:32:50;;;;;;;19.10;13.70;;;;;;;11.72;74.28;98344.85;232446;203;140203;-63
2024/03/12 11:37:58;;;;;;;18.40;14.00;;;;;;;11.78;74.01;98349.00;232285;201;151626;-62
2024/03/12 11:43:03;;;;;;;21.40;14.60;;;;;;;11.81;73.79;98345.38;232405;200;137558;-64
2024/03/12 11:48:11;;;;;;;20.50;14.20;;;;;;;11.86;73.52;98343.60;232450;203;137009;-62
2024/03/12 11:53:20;;;;;;;19.30;14.80;;;;;;;11.82;73.29;98344.42;232407;196;151573;-64
2024/03/12 11:58:31;;;;;;;19.10;13.50;;;;;;;11.80;73.36;98345.99;232458;203;138397;-63
2024/03/12 12:03:35;;;;;;;19.70;13.60;;;;;;;11.77;73.31;98349.48;232317;200;138702;-63
2024/03/12 12:08:38;;;;;;;17.90;12.80;;;;;;;11.70;73.34;98351.60;232376;203;152047;-63
2024/03/12 12:13:57;;;;;;;16.70;12.20;;;;;;;11.70;73.36;98356.90;232360;203;137299;-65
2024/03/12 12:19:08;;;;;;;17.10;12.90;;;;;;;11.73;73.27;98358.80;232394;203;137857;-64
2024/03/12 12:24:26;;;;;;;19.10;14.10;;;;;;;11.77;73.11;98359.98;232417;203;151253;-62
2024/03/12 12:29:33;;;;;;;18.10;13.00;;;;;;;11.77;73.08;98361.16;232386;203;137598;-63
2024/03/12 12:34:37;;;;;;;19.00;13.60;;;;;;;11.75;73.14;98361.33;232495;203;137578;-62
2024/03/12 12:39:40;;;;;;;20.60;14.30;;;;;;;11.74;73.28;98357.52;232441;200;151496;-62
2024/03/12 12:44:55;;;;;;;24.20;14.60;;;;;;;11.71;73.21;98357.53;232448;203;136657;-62
2024/03/12 12:49:59;;;;;;;18.30;14.30;;;;;;;11.68;73.18;98357.64;232473;200;136835;-63
2024/03/12 12:55:04;;;;;;;20.10;12.80;;;;;;;11.65;73.40;98355.23;232323;203;151465;-63
2024/03/12 13:00:23;;;;;;;17.50;13.10;;;;;;;11.67;73.39;98351.30;232491;204;137431;-62
2024/03/12 13:05:26;;;;;;;19.70;14.00;;;;;;;11.72;73.23;98353.88;232421;203;137052;-62
2024/03/12 13:10:31;;;;;;;20.70;14.80;;;;;;;11.80;72.96;98363.61;232471;200;152829;-62
2024/03/12 13:15:35;;;;;;;21.20;14.50;;;;;;;11.78;72.72;98363.06;232415;201;136861;-62
2024/03/12 13:20:39;;;;;;;21.80;16.20;;;;;;;11.76;72.96;98362.83;232438;203;136985;-63
2024/03/12 13:25:45;;;;;;;22.60;16.10;;;;;;;11.74;72.96;98370.67;232485;196;151620;-64
2024/03/12 13:30:52;;;;;;;26.70;17.20;;;;;;;11.69;73.15;98377.04;232370;197;137230;-62
2024/03/12 13:35:58;;;;;;;23.10;16.90;;;;;;;11.67;73.44;98379.39;232446;203;138416;-62
2024/03/12 13:41:02;;;;;;;25.50;18.00;;;;;;;11.66;73.31;98380.31;232309;203;152683;-63
2024/03/12 13:46:05;;;;;;;29.30;18.20;;;;;;;11.69;73.42;98384.41;232306;200;137139;-62
2024/03/12 13:51:09;;;;;;;21.70;16.80;;;;;;;11.72;73.36;98388.56;232517;200;136719;-62
2024/03/12 13:56:13;;;;;;;24.40;17.50;;;;;;;11.73;73.28;98388.70;232411;200;151498;-62
2024/03/12 14:01:17;;;;;;;24.00;17.10;;;;;;;11.69;73.32;98387.92;232243;197;137595;-62
2024/03/12 14:06:20;;;;;;;25.40;17.50;;;;;;;11.65;73.44;98385.89;232492;203;136848;-62
2024/03/12 14:11:25;;;;;;;25.70;17.90;;;;;;;11.64;73.64;98389.94;232394;200;151332;-62
2024/03/12 14:16:29;;;;;;;24.40;16.90;;;;;;;11.62;73.61;98394.11;232452;203;136947;-62
2024/03/12 14:21:33;;;;;;;24.70;15.60;;;;;;;11.65;73.66;98394.61;232392;203;137583;-63
2024/03/12 14:26:36;;;;;;;24.20;17.10;;;;;;;11.69;73.67;98400.71;232500;196;151252;-62
2024/03/12 14:31:41;;;;;;;29.80;16.90;;;;;;;11.73;73.58;98401.95;232405;200;136849;-63
2024/03/12 14:36:45;;;;;;;24.50;17.40;;;;;;;11.76;73.43;98400.88;232386;203;137549;-63
2024/03/12 14:41:50;;;;;;;30.00;18.70;;;;;;;11.74;73.49;98401.36;232468;203;151894;-62
2024/03/12 14:46:54;;;;;;;28.80;17.70;;;;;;;11.72;73.47;98398.49;232445;203;136683;-62
2024/03/12 14:51:57;;;;;;;29.20;18.50;;;;;;;11.66;73.62;98404.30;232500;196;137150;-62
2024/03/12 14:57:00;;;;;;;29.00;17.40;;;;;;;11.57;73.65;98400.20;232453;203;151638;-63
2024/03/12 15:02:04;;;;;;;29.50;17.50;;;;;;;11.52;73.84;98402.02;232391;203;137406;-62
2024/03/12 15:07:10;;;;;;;385.00;183.70;;;;;;;11.57;74.08;98406.43;232359;203;138052;-62
2024/03/12 15:12:16;;;;;;;30.90;21.10;;;;;;;11.67;74.00;98408.15;232429;200;151598;-62
2024/03/12 15:17:20;;;;;;;28.50;18.50;;;;;;;11.68;73.80;98409.99;232352;203;137834;-63
2024/03/12 15:22:24;;;;;;;28.50;18.80;;;;;;;11.67;73.77;98412.08;232452;199;138319;-63
2024/03/12 15:27:27;;;;;;;31.80;21.60;;;;;;;11.66;73.93;98418.38;232447;203;151633;-63
2024/03/12 15:32:30;;;;;;;35.30;21.70;;;;;;;11.63;74.14;98419.86;232417;203;138231;-62
2024/03/12 15:37:35;;;;;;;33.50;20.30;;;;;;;11.59;74.27;98419.55;232402;200;140082;-63
2024/03/12 15:42:41;;;;;;;35.50;21.40;;;;;;;11.58;74.56;98417.02;232353;203;151296;-62
2024/03/12 15:47:48;;;;;;;36.00;22.80;;;;;;;11.63;74.62;98423.02;232377;203;137391;-62
2024/03/12 15:52:51;;;;;;;35.30;22.20;;;;;;;11.66;74.67;98429.89;232413;200;137108;-61
2024/03/12 15:57:55;;;;;;;37.20;23.00;;;;;;;11.66;74.67;98431.90;232406;203;151672;-62
2024/03/12 16:02:58;;;;;;;37.60;23.90;;;;;;;11.62;74.76;98434.82;232361;200;138022;-62
2024/03/12 16:08:06;;;;;;;38.50;24.70;;;;;;;11.59;74.86;98441.06;232438;200;137059;-63
2024/03/12 16:13:10;;;;;;;39.30;24.60;;;;;;;11.57;74.99;98445.16;232448;203;151968;-62
2024/03/12 16:18:13;;;;;;;35.30;21.80;;;;;;;11.56;74.86;98450.16;231785;200;137407;-60
2024/03/12 16:23:17;;;;;;;37.10;22.00;;;;;;;11.54;74.84;98463.10;232441;197;137970;-61
2024/03/12 16:28:20;;;;;;;34.50;21.10;;;;;;;11.58;74.92;98465.36;232468;196;152040;-60
2024/03/12 16:33:24;;;;;;;35.00;21.10;;;;;;;11.60;74.92;98468.00;232448;200;137803;-61
2024/03/12 16:38:27;;;;;;;37.30;21.50;;;;;;;11.60;74.94;98474.93;232519;203;137442;-62
2024/03/12 16:43:31;;;;;;;35.40;21.50;;;;;;;11.57;74.90;98477.68;232355;195;151147;-61
2024/03/12 16:48:34;;;;;;;42.10;25.40;;;;;;;11.89;77.97;98480.23;232358;200;137512;-61
2024/03/12 16:53:45;;;;;;;32.60;20.80;;;;;;;12.28;74.29;98481.02;232351;200;138426;-64
2024/03/12 16:58:49;;;;;;;32.50;21.50;;;;;;;12.05;73.70;98479.21;232461;200;151933;-64
2024/03/12 17:03:53;;;;;;;32.00;21.10;;;;;;;11.91;73.79;98484.55;232277;203;140220;-63
2024/03/12 17:08:58;;;;;;;36.40;21.00;;;;;;;11.85;73.88;98481.80;232252;203;136949;-63
2024/03/12 17:14:03;;;;;;;32.50;20.80;;;;;;;11.76;73.93;98484.05;232139;203;152651;-64
2024/03/12 17:19:08;;;;;;;33.50;20.80;;;;;;;11.66;74.12;98488.02;232028;200;137933;-64
2024/03/12 17:24:13;;;;;;;31.80;20.60;;;;;;;11.58;74.35;98493.06;232379;197;136829;-64
2024/03/12 17:29:19;;;;;;;33.70;19.50;;;;;;;11.48;74.62;98495.02;232468;200;152546;-64
2024/03/12 17:34:22;;;;;;;32.10;19.00;;;;;;;11.43;74.73;98496.29;232403;203;137605;-62
2024/03/12 17:39:28;;;;;;;35.10;20.00;;;;;;;11.38;75.07;98499.91;232440;200;137331;-62
2024/03/12 17:44:33;;;;;;;;;;;;;;;11.40;75.22;98503.84;232477;200;152163;-64
2024/03/12 17:49:41;;;;;;;36.20;21.40;;;;;;;11.51;75.15;98507.98;232513;203;136349;-63
2024/03/12 17:54:45;;;;;;;41.00;24.00;;;;;;;11.45;74.88;98507.52;232532;203;138141;-63
2024/03/12 17:59:49;;;;;;;33.50;20.00;;;;;;;11.35;74.97;98509.87;232446;203;151579;-63
2024/03/12 18:04:52;;;;;;;31.20;19.60;;;;;;;11.27;75.07;98516.64;232426;203;137759;-64
2024/03/12 18:10:00;;;;;;;29.60;18.90;;;;;;;11.16;75.30;98516.08;232560;207;137824;-63
2024/03/12 18:15:05;;;;;;;31.80;19.90;;;;;;;11.16;75.37;98521.41;232475;201;153658;-63
2024/03/12 18:20:16;;;;;;;32.30;19.80;;;;;;;11.19;75.43;98522.03;232487;203;148556;-64
2024/03/12 18:25:19;;;;;;;32.60;20.50;;;;;;;11.20;75.38;98524.30;232450;195;137715;-63
2024/03/12 18:30:24;;;;;;;29.80;20.60;;;;;;;11.23;75.34;98532.02;232454;200;151271;-64
2024/03/12 18:35:28;;;;;;;30.50;20.00;;;;;;;11.23;75.20;98533.80;232409;200;137388;-64
2024/03/12 18:40:31;;;;;;;29.80;19.50;;;;;;;11.18;75.24;98535.42;232401;196;137447;-62
2024/03/12 18:45:37;;;;;;;34.50;21.80;;;;;;;11.13;75.62;98536.52;232462;203;151308;-64
2024/03/12 18:50:44;;;;;;;26.10;16.30;;;;;;;11.10;75.64;98537.44;232142;203;138269;-63
2024/03/12 18:55:47;;;;;;;25.50;14.80;;;;;;;11.08;75.92;98538.65;232533;199;138378;-62
2024/03/12 19:00:51;;;;;;;24.50;16.50;;;;;;;11.11;75.78;98538.25;232451;200;151892;-64
2024/03/12 19:05:55;;;;;;;26.30;16.10;;;;;;;11.14;75.81;98542.14;232302;203;138043;-63
2024/03/12 19:11:01;;;;;;;;;;;;;;;11.12;75.78;98542.77;232354;203;139183;-62
2024/03/12 19:16:08;;;;;;;22.90;13.40;;;;;;;11.08;75.81;98547.14;232451;203;152267;-63
2024/03/12 19:21:12;;;;;;;28.90;18.60;;;;;;;11.05;75.94;98543.98;232328;200;136999;-62
2024/03/12 19:26:17;;;;;;;22.10;13.90;;;;;;;11.02;76.15;98544.94;232477;203;136977;-62
2024/03/12 19:31:21;;;;;;;19.60;12.20;;;;;;;10.98;76.24;98544.88;232358;203;151086;-62
2024/03/12 19:36:26;;;;;;;20.30;13.50;;;;;;;10.97;76.44;98546.20;232407;203;137859;-63
2024/03/12 19:41:31;;;;;;;22.40;15.00;;;;;;;11.02;76.54;98544.23;232501;203;137739;-61
2024/03/12 19:46:34;;;;;;;127.00;92.40;;;;;;;11.25;78.05;98543.25;232352;203;152388;-64
2024/03/12 19:51:38;;;;;;;23.20;15.20;;;;;;;11.57;76.86;98538.77;232477;203;137739;-63
2024/03/12 19:56:41;;;;;;;19.00;13.80;;;;;;;11.47;75.64;98543.81;232360;203;138161;-62
2024/03/12 20:01:47;;;;;;;19.40;12.90;;;;;;;11.38;75.78;98549.45;231862;197;151952;-63
2024/03/12 20:06:50;;;;;;;19.20;14.20;;;;;;;11.29;75.81;98549.38;232412;200;137749;-63
2024/03/12 20:11:55;;;;;;;17.30;12.30;;;;;;;11.22;75.93;98554.17;232312;203;137529;-64
2024/03/12 20:17:00;;;;;;;74.80;56.20;;;;;;;11.14;76.69;98558.77;232365;203;151170;-62
2024/03/12 20:22:04;;;;;;;25.50;16.70;;;;;;;11.45;77.25;98557.10;232403;197;137377;-64
2024/03/12 20:27:07;;;;;;;16.30;11.00;;;;;;;11.54;75.88;98561.58;232372;199;137480;-62
2024/03/12 20:32:11;;;;;;;14.80;10.90;;;;;;;11.42;75.51;98563.68;232323;201;151536;-64
2024/03/12 20:37:19;;;;;;;14.70;10.70;;;;;;;11.28;75.73;98567.52;232458;203;137672;-64
2024/03/12 20:42:22;;;;;;;16.40;10.40;;;;;;;11.23;75.89;98568.84;232467;203;137090;-64
2024/03/12 20:47:26;;;;;;;17.60;11.00;;;;;;;11.16;76.10;98570.40;232485;197;152302;-64
2024/03/12 20:52:29;;;;;;;19.80;14.80;;;;;;;11.13;76.27;98573.76;232426;200;138017;-63
2024/03/12 20:57:33;;;;;;;99.50;75.70;;;;;;;11.14;76.27;98582.99;231919;203;138373;-65
2024/03/12 21:02:36;;;;;;;16.20;10.90;;;;;;;11.20;76.49;98581.61;232475;203;152208;-65
2024/03/12 21:07:39;;;;;;;130.60;88.80;;;;;;;11.19;76.19;98578.36;232463;200;137077;-62
2024/03/12 21:12:43;;;;;;;16.10;11.50;;;;;;;11.16;76.38;98583.00;231863;203;137480;-61
2024/03/12 21:17:47;;;;;;;17.70;11.30;;;;;;;11.05;76.27;98583.23;232409;200;153701;-61
2024/03/12 21:22:51;;;;;;;16.40;12.20;;;;;;;10.96;76.52;98584.06;232452;203;137117;-60
2024/03/12 21:27:57;;;;;;;16.10;11.40;;;;;;;10.91;76.70;98584.07;232510;200;137135;-60
2024/03/12 21:33:01;;;;;;;14.00;10.90;;;;;;;10.90;76.86;98587.83;232553;200;151785;-61
2024/03/12 21:38:04;;;;;;;16.10;12.20;;;;;;;10.95;76.83;98589.33;232411;203;139253;-61
2024/03/12 21:43:08;;;;;;;17.40;11.70;;;;;;;10.96;76.75;98590.09;232444;203;138295;-61
2024/03/12 21:48:13;;;;;;;17.30;12.90;;;;;;;10.94;76.65;98593.45;232446;203;151321;-60
2024/03/12 21:53:17;;;;;;;19.20;13.70;;;;;;;10.89;76.80;98594.80;232482;203;137795;-61
2024/03/12 21:58:20;;;;;;;17.30;11.60;;;;;;;10.85;77.02;98596.70;232411;200;137113;-61
2024/03/12 22:03:24;;;;;;;16.40;11.00;;;;;;;10.84;76.95;98596.79;232419;203;152704;-61
2024/03/12 22:08:27;;;;;;;16.20;10.60;;;;;;;10.85;76.76;98603.13;232385;200;138487;-62
2024/03/12 22:13:31;;;;;;;18.30;12.80;;;;;;;10.80;76.93;98607.17;232361;197;139481;-61
2024/03/12 22:18:46;;;;;;;15.70;10.80;;;;;;;10.86;76.98;98613.30;232469;203;153250;-61
2024/03/12 22:23:49;;;;;;;13.80;9.80;;;;;;;10.82;76.65;98613.08;232466;196;138473;-62
2024/03/12 22:28:54;;;;;;;13.10;9.50;;;;;;;10.76;76.69;98617.94;232480;203;139854;-62
2024/03/12 22:33:58;;;;;;;12.80;8.70;;;;;;;10.70;76.66;98614.83;232383;203;152044;-62
2024/03/12 22:39:03;;;;;;;14.10;9.10;;;;;;;10.63;76.69;98618.14;232445;203;137781;-60
2024/03/12 22:44:06;;;;;;;13.30;9.60;;;;;;;10.57;76.83;98620.09;232429;203;137227;-61
2024/03/12 22:49:10;;;;;;;11.10;7.90;;;;;;;10.57;76.99;98623.13;232440;203;152170;-61
2024/03/12 22:54:14;;;;;;;11.50;7.60;;;;;;;10.62;76.86;98627.05;232446;199;137593;-61
2024/03/12 22:59:18;;;;;;;11.60;8.00;;;;;;;10.65;76.80;98630.19;232446;203;136800;-59
2024/03/12 23:04:23;;;;;;;10.60;7.70;;;;;;;10.71;76.80;98628.58;232420;200;152006;-61
2024/03/12 23:09:27;;;;;;;10.00;6.80;;;;;;;10.71;76.44;98629.63;232456;203;137993;-61
2024/03/12 23:14:30;;;;;;;10.50;7.40;;;;;;;10.63;76.38;98631.39;232424;203;138507;-60
2024/03/12 23:19:36;;;;;;;10.50;7.30;;;;;;;10.56;76.28;98634.55;232422;200;152130;-61